Ballonweer?

Available data for EHGG from the past 2 hours
GRONINGEN/EELDE
Metar
EHGG 171625Z AUTO 20010KT 170V230 9999 FEW009 SCT010 BKN014 FEW015CB 19/17 Q1005 TEMPO 7000 -RADZ BKN008

16:25 UTC

Wind: 200° 10kt

Visibility: 9999 m

Sky: FEW 900 ft

Temp: 19 deg C / 66.2 deg F

Dewpoint: 17 deg C / 62.6 deg F

Pressure: 1005 hPa

TAF
TAF COR EHGG 171133Z 1712/1818 21015KT 9999 BKN014 PROB30 TEMPO 1712/1715 24015G25KT 6000 SHRA SCT012TCU BECMG 1714/1717 24008KT SCT025 TEMPO 1804/1811 7000 -RA PROB30 TEMPO 1805/1810 4500 RA BKN012 BECMG 1811/1814 24012KT SCT020

Buienradar (tot 2 uur vooruit)

 

KNMI weerbulletin kleine luchtvaart

Klik hier om het weerbulletin te openen in een nieuw tabblad.